createdAt,value
2023-01-23T00:01:19.543Z,1.08
2023-01-23T00:03:46.713Z,1.06
2023-01-23T00:06:16.196Z,1.06
2023-01-23T00:08:45.294Z,1.10
2023-01-23T00:11:14.763Z,1.13
2023-01-23T00:13:41.668Z,1.09
2023-01-23T00:16:13.655Z,1.10
2023-01-23T00:18:41.910Z,1.10
2023-01-23T00:21:14.516Z,1.10
2023-01-23T00:23:46.857Z,1.12
2023-01-23T00:26:16.598Z,1.13
2023-01-23T00:28:45.571Z,1.21
2023-01-23T00:31:21.812Z,1.20
2023-01-23T00:33:48.821Z,1.16
2023-01-23T00:36:15.785Z,1.08
2023-01-23T00:38:43.217Z,1.11
2023-01-23T00:41:09.950Z,1.15
2023-01-23T00:43:36.678Z,1.16
2023-01-23T00:46:03.392Z,1.16
2023-01-23T00:48:30.707Z,1.16
2023-01-23T00:50:57.493Z,1.17
2023-01-23T00:53:24.687Z,1.17
2023-01-23T00:55:51.628Z,1.15
2023-01-23T00:58:18.778Z,1.12
2023-01-23T01:00:45.818Z,1.12
2023-01-23T01:03:12.941Z,1.13
2023-01-23T01:05:39.683Z,1.19
2023-01-23T01:08:06.537Z,1.13
2023-01-23T01:10:34.013Z,1.08
2023-01-23T01:13:02.946Z,1.06
2023-01-23T01:15:31.479Z,1.06
2023-01-23T01:17:59.079Z,1.08
2023-01-23T01:20:28.131Z,1.11
2023-01-23T01:22:56.785Z,1.16
2023-01-23T01:25:23.546Z,1.19
2023-01-23T01:27:50.244Z,1.16
2023-01-23T01:30:18.777Z,1.14
2023-01-23T01:32:46.054Z,1.19
2023-01-23T01:35:13.032Z,1.22
2023-01-23T01:37:41.098Z,1.20
2023-01-23T01:40:12.858Z,1.16
2023-01-23T01:42:54.898Z,1.22
2023-01-23T01:45:59.338Z,1.26
2023-01-23T01:48:52.213Z,1.19
2023-01-23T01:52:05.667Z,1.13
2023-01-23T01:54:43.018Z,1.10
2023-01-23T01:57:31.918Z,1.08
2023-01-23T02:00:01.417Z,1.07
2023-01-23T02:02:32.817Z,1.10
2023-01-23T02:05:26.019Z,1.12
2023-01-23T02:08:18.826Z,1.13
2023-01-23T02:10:45.950Z,1.12
2023-01-23T02:13:32.335Z,1.10
2023-01-23T02:16:02.059Z,1.09
2023-01-23T02:18:31.255Z,1.07
2023-01-23T02:21:01.476Z,1.01
2023-01-23T02:23:40.730Z,1.02
2023-01-23T02:26:12.606Z,1.03
2023-01-23T02:28:42.870Z,1.03
2023-01-23T02:31:10.337Z,1.06
2023-01-23T02:33:37.078Z,1.04
2023-01-23T02:36:05.429Z,1.09
2023-01-23T02:38:45.523Z,1.12
2023-01-23T02:41:14.107Z,1.14
2023-01-23T02:43:41.954Z,1.12
2023-01-23T02:46:11.216Z,1.12
2023-01-23T02:48:43.856Z,1.11
2023-01-23T02:51:10.620Z,1.10
2023-01-23T02:53:37.949Z,1.10
2023-01-23T02:56:05.231Z,1.10
2023-01-23T02:58:50.841Z,1.10
2023-01-23T03:01:17.619Z,1.05
2023-01-23T03:03:44.701Z,1.06
2023-01-23T03:06:11.879Z,1.09
2023-01-23T03:08:47.486Z,1.13
2023-01-23T03:11:16.603Z,1.13
2023-01-23T03:13:45.001Z,1.09
2023-01-23T03:16:12.024Z,1.09
2023-01-23T03:18:52.795Z,1.10
2023-01-23T03:21:20.689Z,1.08
2023-01-23T03:23:48.362Z,1.07
2023-01-23T03:26:15.740Z,1.08
2023-01-23T03:29:01.182Z,1.10
2023-01-23T03:31:28.053Z,1.10
2023-01-23T03:33:54.947Z,1.10
2023-01-23T03:36:21.706Z,1.08
2023-01-23T03:39:07.083Z,1.06
2023-01-23T03:41:33.941Z,1.10
2023-01-23T03:44:00.684Z,1.08
2023-01-23T03:46:27.478Z,1.05
2023-01-23T03:48:54.199Z,1.06
2023-01-23T03:51:21.005Z,1.10
2023-01-23T03:53:47.708Z,1.08
2023-01-23T03:56:14.420Z,1.06
2023-01-23T03:58:41.104Z,1.07
2023-01-23T04:01:09.679Z,1.08
2023-01-23T04:03:36.787Z,1.09
2023-01-23T04:06:03.618Z,1.10
2023-01-23T04:08:30.510Z,1.13
2023-01-23T04:11:05.818Z,1.15
2023-01-23T04:13:32.648Z,1.13
2023-01-23T04:16:00.453Z,1.13
2023-01-23T04:18:27.914Z,1.15
2023-01-23T04:20:55.781Z,1.19
2023-01-23T04:23:23.362Z,1.20
2023-01-23T04:25:50.620Z,1.19
2023-01-23T04:28:17.779Z,1.14
2023-01-23T04:30:45.043Z,1.13
2023-01-23T04:33:12.144Z,1.10
2023-01-23T04:35:38.869Z,1.12
2023-01-23T04:38:05.694Z,1.13
2023-01-23T04:40:32.485Z,1.09
2023-01-23T04:42:59.301Z,1.14
2023-01-23T04:45:26.056Z,1.14
2023-01-23T04:47:52.774Z,1.14
2023-01-23T04:50:19.965Z,1.14
2023-01-23T04:52:47.029Z,1.18
2023-01-23T04:55:14.039Z,1.20
2023-01-23T04:57:40.837Z,1.17
2023-01-23T05:00:08.652Z,1.17
2023-01-23T05:02:35.393Z,1.15
2023-01-23T05:05:02.358Z,1.13
2023-01-23T05:07:29.118Z,1.13
2023-01-23T05:09:55.830Z,1.13
2023-01-23T05:12:22.485Z,1.13
2023-01-23T05:14:49.258Z,1.11
2023-01-23T05:17:16.011Z,1.10
2023-01-23T05:19:45.745Z,1.13
2023-01-23T05:22:12.607Z,1.11
2023-01-23T05:24:39.323Z,1.07
2023-01-23T05:27:06.118Z,0.98
2023-01-23T05:29:32.833Z,0.98
2023-01-23T05:31:59.563Z,1.02
2023-01-23T05:34:26.469Z,1.00
2023-01-23T05:36:53.238Z,1.04
2023-01-23T05:39:20.092Z,1.06
2023-01-23T05:41:46.938Z,1.06
2023-01-23T05:44:16.039Z,1.07
2023-01-23T05:46:42.747Z,1.04
2023-01-23T05:49:09.539Z,1.10
2023-01-23T05:51:36.518Z,1.09
2023-01-23T05:54:03.598Z,1.11
2023-01-23T05:56:30.439Z,1.12
2023-01-23T05:58:58.408Z,1.08
2023-01-23T06:01:25.436Z,1.06
2023-01-23T06:03:52.324Z,1.09
2023-01-23T06:06:19.201Z,1.04
2023-01-23T06:08:46.025Z,1.05
2023-01-23T06:11:12.908Z,1.04
2023-01-23T06:13:39.661Z,1.01
2023-01-23T06:16:09.105Z,1.05
2023-01-23T06:18:37.263Z,1.04
2023-01-23T06:21:04.367Z,1.08
2023-01-23T06:23:31.019Z,1.09
2023-01-23T06:26:02.314Z,1.10
2023-01-23T06:28:29.655Z,1.13
2023-01-23T06:31:01.810Z,1.15
2023-01-23T06:33:28.689Z,1.16
2023-01-23T06:36:03.390Z,1.21
2023-01-23T06:38:30.953Z,1.20
2023-01-23T06:40:57.911Z,1.19
2023-01-23T06:43:26.123Z,1.19
2023-01-23T06:45:53.022Z,1.17
2023-01-23T06:48:20.792Z,1.17
2023-01-23T06:50:47.592Z,1.17
2023-01-23T06:53:16.038Z,1.12
2023-01-23T06:55:42.980Z,1.14
2023-01-23T06:58:10.602Z,1.15
2023-01-23T07:00:37.471Z,1.17
2023-01-23T07:03:04.498Z,1.17
2023-01-23T07:05:35.938Z,1.14
2023-01-23T07:08:04.086Z,1.11
2023-01-23T07:10:32.340Z,1.11
2023-01-23T07:12:59.110Z,1.09
2023-01-23T07:15:25.983Z,1.09
2023-01-23T07:17:53.280Z,1.08
2023-01-23T07:20:27.569Z,1.11
2023-01-23T07:22:55.653Z,1.14
2023-01-23T07:25:24.161Z,1.13
2023-01-23T07:27:51.239Z,1.07
2023-01-23T07:30:18.939Z,1.06
2023-01-23T07:32:46.081Z,1.04
2023-01-23T07:35:12.938Z,1.05
2023-01-23T07:37:39.871Z,1.08
2023-01-23T07:40:07.258Z,1.12
2023-01-23T07:42:34.303Z,1.15
2023-01-23T07:45:04.069Z,1.14
2023-01-23T07:47:30.943Z,1.14
2023-01-23T07:49:57.689Z,1.17
2023-01-23T07:52:24.485Z,1.16
2023-01-23T07:54:51.364Z,1.17
2023-01-23T07:57:18.003Z,1.20
2023-01-23T07:59:44.779Z,1.22
2023-01-23T08:02:11.879Z,1.25
2023-01-23T08:04:38.604Z,1.29
2023-01-23T08:07:05.546Z,1.28
2023-01-23T08:09:32.492Z,1.31
2023-01-23T08:11:59.270Z,1.28
2023-01-23T08:14:26.147Z,1.31
2023-01-23T08:16:53.311Z,1.34
2023-01-23T08:19:20.159Z,1.25
2023-01-23T08:21:47.457Z,1.21
2023-01-23T08:24:14.378Z,1.25
2023-01-23T08:26:42.223Z,1.24
2023-01-23T08:29:10.910Z,1.29
2023-01-23T08:31:38.317Z,1.37
2023-01-23T08:34:05.471Z,1.38
2023-01-23T08:36:32.464Z,1.48
2023-01-23T08:39:00.060Z,1.62
2023-01-23T08:41:26.919Z,1.51
2023-01-23T08:43:53.873Z,1.45
2023-01-23T08:46:20.720Z,1.45
2023-01-23T08:48:47.510Z,1.43
2023-01-23T08:51:14.863Z,1.43
2023-01-23T08:53:42.024Z,1.46
2023-01-23T08:56:16.902Z,1.50
2023-01-23T08:58:44.699Z,1.54
2023-01-23T09:01:13.501Z,1.41
2023-01-23T09:03:40.289Z,1.44
2023-01-23T09:06:07.555Z,1.49
2023-01-23T09:08:36.698Z,1.53
2023-01-23T09:11:05.984Z,1.55
2023-01-23T09:13:33.749Z,1.60
2023-01-23T09:16:00.539Z,1.58
2023-01-23T09:18:27.385Z,1.61
2023-01-23T09:20:54.989Z,1.63
2023-01-23T09:23:22.805Z,1.67
2023-01-23T09:25:49.722Z,1.68
2023-01-23T09:28:16.698Z,1.78
2023-01-23T09:30:43.943Z,1.80
2023-01-23T09:33:10.679Z,1.79
2023-01-23T09:35:37.474Z,1.85
2023-01-23T09:38:06.990Z,1.85
2023-01-23T09:40:45.588Z,1.90
2023-01-23T09:43:17.504Z,2.09
2023-01-23T09:45:58.427Z,2.15
2023-01-23T09:48:53.870Z,2.23
2023-01-23T09:51:26.820Z,2.34
2023-01-23T09:53:58.341Z,2.32
2023-01-23T09:56:31.665Z,2.29
2023-01-23T09:59:00.389Z,2.27
2023-01-23T10:01:30.553Z,2.25
2023-01-23T10:03:59.532Z,2.20
2023-01-23T10:06:32.194Z,2.17
2023-01-23T10:09:22.107Z,2.15
2023-01-23T10:12:06.824Z,2.17
2023-01-23T10:15:15.472Z,2.21
2023-01-23T10:18:01.300Z,2.16
2023-01-23T10:20:45.168Z,2.11
2023-01-23T10:23:23.943Z,2.08
2023-01-23T10:25:51.822Z,2.03
2023-01-23T10:28:27.863Z,2.06
2023-01-23T10:31:00.677Z,2.07
2023-01-23T10:33:40.069Z,1.97
2023-01-23T10:36:42.070Z,1.94
2023-01-23T10:39:18.759Z,1.93
2023-01-23T10:41:51.153Z,1.92
2023-01-23T10:44:20.000Z,1.86
2023-01-23T10:46:49.726Z,1.81
2023-01-23T10:49:43.986Z,1.79
2023-01-23T10:52:29.625Z,1.79
2023-01-23T10:54:56.542Z,1.83
2023-01-23T10:57:29.628Z,1.85
2023-01-23T11:00:07.092Z,1.87
2023-01-23T11:02:40.238Z,1.94
2023-01-23T11:05:50.398Z,1.98
2023-01-23T11:08:40.453Z,1.96
2023-01-23T11:11:16.349Z,2.02
2023-01-23T11:13:44.949Z,2.01
2023-01-23T11:16:18.240Z,2.04
2023-01-23T11:19:11.469Z,2.05
2023-01-23T11:21:52.913Z,2.08
2023-01-23T11:24:38.653Z,2.16
2023-01-23T11:27:21.012Z,2.21
2023-01-23T11:29:59.936Z,2.18
2023-01-23T11:32:30.114Z,2.19
2023-01-23T11:35:13.148Z,2.17
2023-01-23T11:37:41.020Z,2.18
2023-01-23T11:40:19.673Z,2.25
2023-01-23T11:42:47.431Z,2.33
2023-01-23T11:45:29.479Z,2.37
2023-01-23T11:48:09.985Z,2.39
2023-01-23T11:50:55.360Z,2.42
2023-01-23T11:53:42.456Z,2.47
2023-01-23T11:56:31.176Z,2.44
2023-01-23T11:59:09.052Z,2.43
2023-01-23T12:02:04.054Z,2.41
2023-01-23T12:04:52.589Z,2.37
2023-01-23T12:07:22.975Z,2.30
2023-01-23T12:10:11.578Z,2.29
2023-01-23T12:13:00.292Z,2.31
2023-01-23T12:16:00.709Z,2.29
2023-01-23T12:18:29.211Z,2.29
2023-01-23T12:21:14.805Z,2.29
2023-01-23T12:23:59.313Z,2.29
2023-01-23T12:26:29.443Z,2.30
2023-01-23T12:29:18.807Z,2.37
2023-01-23T12:32:19.771Z,2.36
2023-01-23T12:35:06.626Z,2.32
2023-01-23T12:37:51.010Z,2.29
2023-01-23T12:40:39.530Z,2.36
2023-01-23T12:43:16.639Z,2.41
2023-01-23T12:45:53.150Z,2.43
2023-01-23T12:48:28.444Z,2.45
2023-01-23T12:51:02.080Z,2.44
2023-01-23T12:53:36.076Z,2.41
2023-01-23T12:56:10.422Z,2.43
2023-01-23T12:58:42.392Z,2.48
2023-01-23T13:01:31.539Z,2.48
2023-01-23T13:04:14.360Z,2.49
2023-01-23T13:07:13.735Z,2.52
2023-01-23T13:10:02.466Z,2.60
2023-01-23T13:12:30.099Z,2.65
2023-01-23T13:15:39.220Z,2.64
2023-01-23T13:18:22.911Z,2.66
2023-01-23T13:21:17.972Z,2.66
2023-01-23T13:23:45.115Z,2.59
2023-01-23T13:26:15.011Z,2.59
2023-01-23T13:28:47.809Z,2.63
2023-01-23T13:31:40.466Z,2.65
2023-01-23T13:34:30.041Z,2.59
2023-01-23T13:37:28.524Z,2.60
2023-01-23T13:40:13.416Z,2.60
2023-01-23T13:42:40.318Z,2.60
2023-01-23T13:45:16.258Z,2.59
2023-01-23T14:21:18.708Z,2.64
2023-01-23T14:23:50.666Z,2.65
2023-01-23T14:26:19.424Z,2.63
2023-01-23T14:28:54.776Z,2.64
2023-01-23T14:31:24.998Z,2.61
2023-01-23T14:34:09.110Z,2.61
2023-01-23T14:36:38.010Z,2.66
2023-01-23T14:39:08.112Z,2.64
2023-01-23T14:41:41.577Z,2.57
2023-01-23T14:44:24.423Z,2.61
2023-01-23T14:46:54.069Z,2.67
2023-01-23T14:49:27.533Z,2.69
2023-01-23T14:52:04.099Z,2.74
2023-01-23T14:54:33.386Z,2.77
2023-01-23T14:57:04.307Z,2.72
2023-01-23T14:59:40.077Z,2.70
2023-01-23T15:02:31.478Z,2.66
2023-01-23T15:05:07.579Z,2.65
2023-01-23T15:07:35.635Z,2.66
2023-01-23T15:10:02.883Z,2.66
2023-01-23T15:13:05.885Z,2.67
2023-01-23T15:15:34.758Z,2.65
2023-01-23T15:18:03.606Z,2.69
2023-01-23T15:20:36.247Z,2.65
2023-01-23T15:23:33.876Z,2.59
2023-01-23T15:26:19.790Z,2.59
2023-01-23T15:29:09.653Z,2.62
2023-01-23T15:31:42.643Z,2.66
2023-01-23T15:34:15.698Z,2.66
2023-01-23T15:36:53.264Z,2.66
2023-01-23T15:39:35.267Z,2.65
2023-01-23T15:42:29.412Z,2.65
2023-01-23T15:45:00.866Z,2.56
2023-01-23T15:47:29.855Z,2.53
2023-01-23T15:50:01.468Z,2.50
2023-01-23T15:52:48.623Z,2.53
2023-01-23T15:55:16.052Z,2.54
2023-01-23T15:57:43.882Z,2.58
2023-01-23T16:00:19.923Z,2.54
2023-01-23T16:02:56.424Z,2.52
2023-01-23T16:05:30.322Z,2.48
2023-01-23T16:08:01.030Z,2.47
2023-01-23T16:10:31.286Z,2.48
2023-01-23T16:12:58.410Z,2.48
2023-01-23T16:15:33.157Z,2.46
2023-01-23T16:18:04.500Z,2.48
2023-01-23T16:20:34.695Z,2.46
2023-01-23T16:23:15.250Z,2.47
2023-01-23T16:25:45.524Z,2.45
2023-01-23T16:28:20.924Z,2.43
2023-01-23T16:30:48.950Z,2.42
2023-01-23T16:33:15.971Z,2.45
2023-01-23T16:35:43.992Z,2.44
2023-01-23T16:38:26.569Z,2.43
2023-01-23T16:40:54.808Z,2.42
2023-01-23T16:43:22.615Z,2.43
2023-01-23T16:45:49.531Z,2.43
2023-01-23T16:48:26.300Z,2.43
2023-01-23T16:50:58.740Z,2.39
2023-01-23T16:53:27.771Z,2.39
2023-01-23T16:55:59.246Z,2.37
2023-01-23T16:58:29.346Z,2.38
2023-01-23T17:01:01.138Z,2.39
2023-01-23T17:03:32.770Z,2.40
2023-01-23T17:06:00.101Z,2.44
2023-01-23T17:08:27.669Z,2.42
2023-01-23T17:10:59.881Z,2.42
2023-01-23T17:13:28.459Z,2.39
2023-01-23T17:15:56.121Z,2.40
2023-01-23T17:18:26.116Z,2.44
2023-01-23T17:20:54.934Z,2.45
2023-01-23T17:23:22.869Z,2.46
2023-01-23T17:25:59.842Z,2.48
2023-01-23T17:28:27.380Z,2.53
2023-01-23T17:30:55.554Z,2.52
2023-01-23T17:33:31.374Z,2.48
2023-01-23T17:35:59.968Z,2.47
2023-01-23T17:38:31.553Z,2.46
2023-01-23T17:40:58.486Z,2.47
2023-01-23T17:43:25.267Z,2.49
2023-01-23T17:45:52.979Z,2.51
2023-01-23T17:48:27.767Z,2.53
2023-01-23T17:50:54.921Z,2.52
2023-01-23T17:53:22.103Z,2.52
2023-01-23T17:55:48.924Z,2.52
2023-01-23T17:58:16.144Z,2.49
2023-01-23T18:00:44.739Z,2.49
2023-01-23T18:03:17.883Z,2.49
2023-01-23T18:05:44.660Z,2.52
2023-01-23T18:08:16.261Z,2.52
2023-01-23T18:10:45.329Z,2.52
2023-01-23T18:13:40.400Z,2.46
2023-01-23T18:16:26.993Z,2.47
2023-01-23T18:19:03.578Z,2.48
2023-01-23T18:21:30.685Z,2.47
2023-01-23T18:23:57.802Z,2.49
2023-01-23T18:26:48.976Z,2.47
2023-01-23T18:29:31.030Z,2.47
2023-01-23T18:32:25.237Z,2.47
2023-01-23T18:35:24.328Z,2.48
2023-01-23T18:38:07.773Z,2.50
2023-01-23T18:41:12.489Z,2.47
2023-01-23T18:43:43.688Z,2.44
2023-01-23T18:46:18.608Z,2.46
2023-01-23T18:48:47.090Z,2.48
2023-01-23T18:51:25.585Z,2.48
2023-01-23T18:54:18.708Z,2.49
2023-01-23T18:57:23.445Z,2.48
2023-01-23T19:00:14.300Z,2.48
2023-01-23T19:02:45.225Z,2.51
2023-01-23T19:05:16.207Z,2.49
2023-01-23T19:07:45.033Z,2.47
2023-01-23T19:10:18.377Z,2.47
2023-01-23T19:13:13.598Z,2.46
2023-01-23T19:15:51.221Z,2.48
2023-01-23T19:18:40.757Z,2.50
2023-01-23T19:21:14.016Z,2.47
2023-01-23T19:24:00.531Z,2.46
2023-01-23T19:26:29.951Z,2.51
2023-01-23T19:28:59.735Z,2.51
2023-01-23T19:31:29.887Z,2.51
2023-01-23T19:33:57.416Z,2.52
2023-01-23T19:36:24.626Z,2.53
2023-01-23T19:39:00.803Z,2.53
2023-01-23T19:41:41.569Z,2.54
2023-01-23T19:44:15.187Z,2.55
2023-01-23T19:46:43.193Z,2.54
2023-01-23T19:49:11.141Z,2.57
2023-01-23T19:51:39.283Z,2.58
2023-01-23T19:54:09.318Z,2.57
2023-01-23T19:56:36.899Z,2.59
2023-01-23T19:59:03.704Z,2.60
2023-01-23T20:01:38.626Z,2.63
2023-01-23T20:04:15.876Z,2.62
2023-01-23T20:06:45.733Z,2.63
2023-01-23T20:09:15.579Z,2.64
2023-01-23T20:11:42.897Z,2.63
2023-01-23T20:14:09.697Z,2.65
2023-01-23T20:16:40.279Z,2.65
2023-01-23T20:19:07.848Z,2.61
2023-01-23T20:21:35.188Z,2.60
2023-01-23T20:24:02.081Z,2.59
2023-01-23T20:26:29.057Z,2.60
2023-01-23T20:28:56.011Z,2.65
2023-01-23T20:31:23.140Z,2.63
2023-01-23T20:33:50.463Z,2.65
2023-01-23T20:36:17.302Z,2.59
2023-01-23T20:38:44.442Z,2.59
2023-01-23T20:41:13.937Z,2.59
2023-01-23T20:43:43.221Z,2.61
2023-01-23T20:46:11.471Z,2.63
2023-01-23T20:48:40.253Z,2.60
2023-01-23T20:51:09.636Z,2.61
2023-01-23T20:53:39.479Z,2.62
2023-01-23T20:56:12.218Z,2.63
2023-01-23T20:59:00.241Z,2.66
2023-01-23T21:01:29.946Z,2.65
2023-01-23T21:03:57.083Z,2.61
2023-01-23T21:06:23.851Z,2.67
2023-01-23T21:08:50.584Z,2.68
2023-01-23T21:11:19.872Z,2.67
2023-01-23T21:13:51.965Z,2.67
2023-01-23T21:16:18.877Z,2.62
2023-01-23T21:18:46.886Z,2.65
2023-01-23T21:21:19.123Z,2.67
2023-01-23T21:23:48.782Z,2.66
2023-01-23T21:26:22.290Z,2.66
2023-01-23T21:28:51.047Z,2.68
2023-01-23T21:31:21.541Z,2.69
2023-01-23T21:33:48.933Z,2.69
2023-01-23T21:36:19.523Z,2.70
2023-01-23T21:38:46.494Z,2.69
2023-01-23T21:41:13.656Z,2.70
2023-01-23T21:43:40.600Z,2.71
2023-01-23T21:46:07.357Z,2.72
2023-01-23T21:48:34.846Z,2.71
2023-01-23T21:51:08.505Z,2.68
2023-01-23T21:53:40.457Z,2.69
2023-01-23T21:56:08.930Z,2.69
2023-01-23T21:58:36.393Z,2.67
2023-01-23T22:01:29.370Z,2.69
2023-01-23T22:03:56.912Z,2.68
2023-01-23T22:06:23.655Z,2.68
2023-01-23T22:08:50.697Z,2.67
2023-01-23T22:11:17.495Z,2.65
2023-01-23T22:13:44.313Z,2.63
2023-01-23T22:16:12.197Z,2.63
2023-01-23T22:18:39.076Z,2.61
2023-01-23T22:21:07.040Z,2.68
2023-01-23T22:23:33.875Z,2.69
2023-01-23T22:26:03.914Z,2.68
2023-01-23T22:28:31.191Z,2.68
2023-01-23T22:30:58.165Z,2.65
2023-01-23T22:33:30.067Z,2.65
2023-01-23T22:36:04.439Z,2.69
2023-01-23T22:38:32.036Z,2.69
2023-01-23T22:41:00.655Z,2.67
2023-01-23T22:43:27.835Z,2.68
2023-01-23T22:46:09.402Z,2.66
2023-01-23T22:48:36.913Z,2.68
2023-01-23T22:51:06.218Z,2.69
2023-01-23T22:53:33.950Z,2.70
2023-01-23T22:56:05.022Z,2.72
2023-01-23T22:58:32.554Z,2.73
2023-01-23T23:01:00.887Z,2.70
2023-01-23T23:03:31.193Z,2.67
2023-01-23T23:06:00.225Z,2.66
2023-01-23T23:08:27.811Z,2.65
2023-01-23T23:11:24.236Z,2.66
2023-01-23T23:13:51.709Z,2.67
2023-01-23T23:16:21.927Z,2.69
2023-01-23T23:18:51.002Z,2.67
2023-01-23T23:21:21.404Z,2.66
2023-01-23T23:23:48.534Z,2.65
2023-01-23T23:26:15.746Z,2.67
2023-01-23T23:28:42.856Z,2.71
2023-01-23T23:31:10.823Z,2.70
2023-01-23T23:33:38.227Z,2.70
2023-01-23T23:36:07.367Z,2.70
2023-01-23T23:38:34.461Z,2.70
2023-01-23T23:41:06.725Z,2.70
2023-01-23T23:43:34.767Z,2.72
2023-01-23T23:46:04.377Z,2.70
2023-01-23T23:48:32.825Z,2.66
2023-01-23T23:51:00.871Z,2.67
2023-01-23T23:53:28.137Z,2.66
2023-01-23T23:55:55.267Z,2.65
2023-01-23T23:58:23.853Z,2.67
